Wetterdaten: aktuell Samstag, 31.01.2015 16:48
Datum Zeit Temperatur Feuchte Luftdruck Regen Wind Richtung Richtung Taupunkt Windchill
31.01.2015 16:48 2,5 C 90 % 982,8 hPa 0,0 l/m 11,1 km/h (2 Bft) SW 215 1,0 C -0,6 C
31.01.2015 15:48 2,2 C 90 % 982,8 hPa 0,7 l/m 3,1 km/h (1 Bft) S-SW 210 0,7 C 2,2 C
31.01.2015 14:48 2,2 C 90 % 981,8 hPa 0,7 l/m 10,0 km/h (2 Bft) W-SW22.5 255 0,7 C -0,7 C
31.01.2015 13:48 2,5 C 92 % 981,8 hPa 1,4 l/m 9,6 km/h (2 Bft) SW22.5 230 1,3 C -0,2 C
31.01.2015 12:48 2,3 C 98 % 981,8 hPa 1,1 l/m 15,5 km/h (3 Bft) S-SW45 195 2,0 C -1,7 C
31.01.2015 11:48 1,2 C 99 % 981,9 hPa 0,4 l/m 14,0 km/h (3 Bft) S22.5 190 1,1 C -2,8 C
31.01.2015 10:48 0,6 C 99 % 980,9 hPa 0,4 l/m 13,0 km/h (3 Bft) S45 180 0,5 C -3,3 C
31.01.2015 09:48 0,3 C 99 % 980,9 hPa 0,0 l/m 13,0 km/h (3 Bft) S22.5 190 0,2 C -3,7 C
31.01.2015 08:48 0,3 C 99 % 980,9 hPa 0,4 l/m 11,2 km/h (2 Bft) S-SW22.5 200 0,2 C -3,3 C
31.01.2015 07:48 0,3 C 99 % 979,9 hPa 0,4 l/m 11,2 km/h (2 Bft) S-SW22.5 200 0,2 C -3,3 C
31.01.2015 06:48 0,5 C 99 % 978,9 hPa 0,4 l/m 11,5 km/h (2 Bft) S-SW22.5 210 0,4 C -3,1 C
31.01.2015 05:48 0,5 C 99 % 978,9 hPa 0,0 l/m 12,6 km/h (3 Bft) S-SW 210 0,4 C -3,3 C
31.01.2015 04:45 0,4 C 99 % 978,9 hPa 0,0 l/m 7,6 km/h (2 Bft) S-SW22.5 200 0,3 C -2,1 C
31.01.2015 03:45 0,3 C 99 % 978,9 hPa 0,0 l/m 13,8 km/h (3 Bft) S-SW45 205 0,2 C -3,8 C
31.01.2015 02:45 0,2 C 99 % 977,9 hPa 0,0 l/m 16,6 km/h (3 Bft) S-SW22.5 210 0,1 C -4,5 C
31.01.2015 01:45 0,0 C 99 % 977,9 hPa 0,0 l/m 12,8 km/h (3 Bft) S-SW45 200 -0,1 C -4,0 C
31.01.2015 00:45 -0,2 C 98 % 977,9 hPa 0,0 l/m 21,8 km/h (4 Bft) S22.5 190 -0,5 C -5,8 C
30.01.2015 23:45 -0,3 C 98 % 977,9 hPa 0,0 l/m 16,0 km/h (3 Bft) S22.5 175 -0,6 C -5,0 C
30.01.2015 22:45 0,0 C 97 % 977,9 hPa 0,0 l/m 11,4 km/h (2 Bft) S22.5 190 -0,4 C -3,7 C
30.01.2015 21:45 0,2 C 96 % 977,9 hPa 0,0 l/m 11,5 km/h (2 Bft) S45 175 -0,4 C -3,4 C
30.01.2015 20:45 0,2 C 95 % 977,9 hPa 0,0 l/m 6,8 km/h (2 Bft) S22.5 170 -0,5 C -2,1 C
30.01.2015 19:45 -0,2 C 95 % 977,9 hPa 0,0 l/m 3,7 km/h (1 Bft) SO22.5 140 -0,9 C -0,2 C
30.01.2015 18:45 0,0 C 94 % 977,9 hPa 0,4 l/m 0,3 km/h (0 Bft) SW 230 -0,8 C 0,0 C
30.01.2015 17:45 -0,2 C 93 % 977,9 hPa 0,0 l/m 1,3 km/h (1 Bft) SW 215 -1,2 C -0,2 C
30.01.2015 17:00 0,5 C 93 % 976,8 hPa 0,0 l/m 5,7 km/h (1 Bft) SW 215 -0,5 C -1,3 C
_ Min-Zeit 23:39 16:00 17:00 - 18:21 - - 17:33 00:33
Minimum _ -0,3 C 89 % 976,8 hPa - 0,0 km/h (0 Bft) - - -1,2 C -5,9 C
_ Max-Zeit 12:54 00:51 16:06 18:15 12:54 - - 12:54 15:42
Maximum _ 2,5 C 99 % 982,8 hPa 0,4 l/m 22,5 km/h
S-SW (4 Bft)
- - 2,2 C 2,3 C
Durchschnitt _ 0,6 C 96 % 979,2 hPa #6,1 l/m 10,8 km/h (2 Bft) S-SW - 0,1 C -2,5 C